sensor_id;sensor_type;location;lat;lon;timestamp;P1;durP1;ratioP1;P2;durP2;ratioP2
33206;SDS011;19565;46.602;11.534;2024-01-15T00:01:00;24.17;;;23.07;;
33206;SDS011;19565;46.602;11.534;2024-01-15T00:03:30;25.17;;;24.07;;
33206;SDS011;19565;46.602;11.534;2024-01-15T00:05:58;23.97;;;22.90;;
33206;SDS011;19565;46.602;11.534;2024-01-15T00:08:31;25.00;;;23.90;;
33206;SDS011;19565;46.602;11.534;2024-01-15T00:10:59;25.20;;;24.10;;
33206;SDS011;19565;46.602;11.534;2024-01-15T00:13:30;25.63;;;24.53;;
33206;SDS011;19565;46.602;11.534;2024-01-15T00:15:58;24.03;;;23.00;;
33206;SDS011;19565;46.602;11.534;2024-01-15T00:18:27;24.80;;;23.70;;
33206;SDS011;19565;46.602;11.534;2024-01-15T00:20:58;25.30;;;24.20;;
33206;SDS011;19565;46.602;11.534;2024-01-15T00:23:26;25.47;;;24.37;;
33206;SDS011;19565;46.602;11.534;2024-01-15T00:25:54;12.50;;;11.90;;
33206;SDS011;19565;46.602;11.534;2024-01-15T00:28:22;12.40;;;11.80;;
33206;SDS011;19565;46.602;11.534;2024-01-15T00:30:51;12.77;;;12.10;;
33206;SDS011;19565;46.602;11.534;2024-01-15T00:33:23;12.60;;;12.00;;
33206;SDS011;19565;46.602;11.534;2024-01-15T00:35:54;12.30;;;11.70;;
33206;SDS011;19565;46.602;11.534;2024-01-15T00:38:33;12.90;;;12.20;;
33206;SDS011;19565;46.602;11.534;2024-01-15T00:41:05;12.70;;;12.00;;
33206;SDS011;19565;46.602;11.534;2024-01-15T00:43:33;12.73;;;12.10;;
33206;SDS011;19565;46.602;11.534;2024-01-15T00:46:01;12.50;;;11.90;;
33206;SDS011;19565;46.602;11.534;2024-01-15T00:48:29;13.30;;;12.60;;
33206;SDS011;19565;46.602;11.534;2024-01-15T00:50:57;13.40;;;12.70;;
33206;SDS011;19565;46.602;11.534;2024-01-15T00:53:27;13.90;;;12.83;;
33206;SDS011;19565;46.602;11.534;2024-01-15T00:55:55;12.93;;;12.23;;
33206;SDS011;19565;46.602;11.534;2024-01-15T00:58:23;12.80;;;12.10;;
33206;SDS011;19565;46.602;11.534;2024-01-15T01:00:51;14.17;;;13.47;;
33206;SDS011;19565;46.602;11.534;2024-01-15T01:03:20;13.10;;;12.40;;
33206;SDS011;19565;46.602;11.534;2024-01-15T01:05:48;13.77;;;13.07;;
33206;SDS011;19565;46.602;11.534;2024-01-15T01:08:21;13.33;;;12.63;;
33206;SDS011;19565;46.602;11.534;2024-01-15T01:10:53;13.30;;;12.60;;
33206;SDS011;19565;46.602;11.534;2024-01-15T01:13:23;13.80;;;13.10;;
33206;SDS011;19565;46.602;11.534;2024-01-15T01:15:51;13.10;;;12.40;;
33206;SDS011;19565;46.602;11.534;2024-01-15T01:18:19;14.20;;;13.40;;
33206;SDS011;19565;46.602;11.534;2024-01-15T01:20:47;14.60;;;13.80;;
33206;SDS011;19565;46.602;11.534;2024-01-15T01:23:16;12.90;;;12.20;;
33206;SDS011;19565;46.602;11.534;2024-01-15T01:25:44;24.10;;;22.87;;
33206;SDS011;19565;46.602;11.534;2024-01-15T01:28:14;24.43;;;23.03;;
33206;SDS011;19565;46.602;11.534;2024-01-15T01:30:42;25.00;;;23.90;;
33206;SDS011;19565;46.602;11.534;2024-01-15T01:33:10;28.13;;;25.80;;
33206;SDS011;19565;46.602;11.534;2024-01-15T01:35:39;23.80;;;22.80;;
33206;SDS011;19565;46.602;11.534;2024-01-15T01:38:08;24.87;;;23.77;;
33206;SDS011;19565;46.602;11.534;2024-01-15T01:40:36;24.97;;;23.63;;
33206;SDS011;19565;46.602;11.534;2024-01-15T01:43:04;25.63;;;24.53;;
33206;SDS011;19565;46.602;11.534;2024-01-15T01:45:34;25.73;;;24.53;;
33206;SDS011;19565;46.602;11.534;2024-01-15T01:48:03;25.83;;;24.73;;
33206;SDS011;19565;46.602;11.534;2024-01-15T01:50:32;25.87;;;24.77;;
33206;SDS011;19565;46.602;11.534;2024-01-15T01:53:01;26.80;;;25.60;;
33206;SDS011;19565;46.602;11.534;2024-01-15T01:55:30;26.53;;;25.10;;
33206;SDS011;19565;46.602;11.534;2024-01-15T01:58:00;25.73;;;24.63;;
33206;SDS011;19565;46.602;11.534;2024-01-15T02:00:31;26.30;;;25.10;;
33206;SDS011;19565;46.602;11.534;2024-01-15T02:03:03;27.37;;;26.17;;
33206;SDS011;19565;46.602;11.534;2024-01-15T02:05:32;26.90;;;25.70;;
33206;SDS011;19565;46.602;11.534;2024-01-15T02:08:01;26.77;;;25.57;;
33206;SDS011;19565;46.602;11.534;2024-01-15T02:10:29;26.07;;;24.97;;
33206;SDS011;19565;46.602;11.534;2024-01-15T02:12:57;26.73;;;25.57;;
33206;SDS011;19565;46.602;11.534;2024-01-15T02:15:26;27.53;;;26.33;;
33206;SDS011;19565;46.602;11.534;2024-01-15T02:17:59;25.93;;;24.63;;
33206;SDS011;19565;46.602;11.534;2024-01-15T02:20:28;27.03;;;25.80;;
33206;SDS011;19565;46.602;11.534;2024-01-15T02:23:09;26.37;;;25.27;;
33206;SDS011;19565;46.602;11.534;2024-01-15T02:25:42;27.63;;;26.43;;
33206;SDS011;19565;46.602;11.534;2024-01-15T02:28:12;26.00;;;24.90;;
33206;SDS011;19565;46.602;11.534;2024-01-15T02:30:45;27.50;;;26.23;;
33206;SDS011;19565;46.602;11.534;2024-01-15T02:33:13;27.33;;;26.13;;
33206;SDS011;19565;46.602;11.534;2024-01-15T02:35:48;27.57;;;26.37;;
33206;SDS011;19565;46.602;11.534;2024-01-15T02:38:18;27.40;;;26.20;;
33206;SDS011;19565;46.602;11.534;2024-01-15T02:40:47;29.53;;;28.23;;
33206;SDS011;19565;46.602;11.534;2024-01-15T02:43:17;27.73;;;26.53;;
33206;SDS011;19565;46.602;11.534;2024-01-15T02:45:46;27.37;;;26.17;;
33206;SDS011;19565;46.602;11.534;2024-01-15T02:48:14;27.73;;;26.53;;
33206;SDS011;19565;46.602;11.534;2024-01-15T02:50:42;28.20;;;27.00;;
33206;SDS011;19565;46.602;11.534;2024-01-15T02:53:11;27.77;;;26.57;;
33206;SDS011;19565;46.602;11.534;2024-01-15T02:55:40;26.90;;;25.70;;
33206;SDS011;19565;46.602;11.534;2024-01-15T02:58:08;27.20;;;26.00;;
33206;SDS011;19565;46.602;11.534;2024-01-15T03:00:36;27.33;;;26.13;;
33206;SDS011;19565;46.602;11.534;2024-01-15T03:03:04;28.77;;;27.57;;
33206;SDS011;19565;46.602;11.534;2024-01-15T03:05:37;28.23;;;26.93;;
33206;SDS011;19565;46.602;11.534;2024-01-15T03:08:06;28.43;;;27.23;;
33206;SDS011;19565;46.602;11.534;2024-01-15T03:10:34;28.27;;;27.07;;
33206;SDS011;19565;46.602;11.534;2024-01-15T03:13:07;27.77;;;26.57;;
33206;SDS011;19565;46.602;11.534;2024-01-15T03:15:40;27.97;;;26.77;;
33206;SDS011;19565;46.602;11.534;2024-01-15T03:18:15;27.67;;;26.47;;
33206;SDS011;19565;46.602;11.534;2024-01-15T03:20:43;27.97;;;26.77;;
33206;SDS011;19565;46.602;11.534;2024-01-15T03:23:11;29.47;;;28.17;;
33206;SDS011;19565;46.602;11.534;2024-01-15T03:25:44;27.53;;;26.33;;
33206;SDS011;19565;46.602;11.534;2024-01-15T03:28:12;27.37;;;26.17;;
33206;SDS011;19565;46.602;11.534;2024-01-15T03:30:40;27.40;;;26.20;;
33206;SDS011;19565;46.602;11.534;2024-01-15T03:33:08;26.63;;;25.53;;
33206;SDS011;19565;46.602;11.534;2024-01-15T03:35:36;28.13;;;26.83;;
33206;SDS011;19565;46.602;11.534;2024-01-15T03:38:05;27.10;;;25.90;;
33206;SDS011;19565;46.602;11.534;2024-01-15T03:40:33;28.10;;;26.90;;
33206;SDS011;19565;46.602;11.534;2024-01-15T03:43:03;28.13;;;26.93;;
33206;SDS011;19565;46.602;11.534;2024-01-15T03:45:31;12.50;;;11.90;;
33206;SDS011;19565;46.602;11.534;2024-01-15T03:47:59;13.43;;;12.73;;
33206;SDS011;19565;46.602;11.534;2024-01-15T03:50:28;12.60;;;12.00;;
33206;SDS011;19565;46.602;11.534;2024-01-15T03:52:56;14.80;;;14.00;;
33206;SDS011;19565;46.602;11.534;2024-01-15T03:55:24;13.17;;;12.47;;
33206;SDS011;19565;46.602;11.534;2024-01-15T03:57:52;12.57;;;11.97;;
33206;SDS011;19565;46.602;11.534;2024-01-15T04:00:22;13.00;;;12.30;;
33206;SDS011;19565;46.602;11.534;2024-01-15T04:02:53;12.87;;;12.20;;
33206;SDS011;19565;46.602;11.534;2024-01-15T04:05:21;12.80;;;12.10;;
33206;SDS011;19565;46.602;11.534;2024-01-15T04:07:49;13.10;;;12.40;;
33206;SDS011;19565;46.602;11.534;2024-01-15T04:10:18;12.30;;;11.70;;
33206;SDS011;19565;46.602;11.534;2024-01-15T04:12:46;13.37;;;12.67;;
33206;SDS011;19565;46.602;11.534;2024-01-15T04:15:14;24.93;;;23.83;;
33206;SDS011;19565;46.602;11.534;2024-01-15T04:17:44;25.93;;;24.83;;
33206;SDS011;19565;46.602;11.534;2024-01-15T04:20:13;25.07;;;23.97;;
33206;SDS011;19565;46.602;11.534;2024-01-15T04:22:41;25.83;;;24.73;;
33206;SDS011;19565;46.602;11.534;2024-01-15T04:25:11;26.10;;;25.00;;
33206;SDS011;19565;46.602;11.534;2024-01-15T04:27:53;25.37;;;24.27;;
33206;SDS011;19565;46.602;11.534;2024-01-15T04:30:21;26.13;;;25.03;;
33206;SDS011;19565;46.602;11.534;2024-01-15T04:32:51;25.77;;;24.57;;
33206;SDS011;19565;46.602;11.534;2024-01-15T04:35:19;29.37;;;27.43;;
33206;SDS011;19565;46.602;11.534;2024-01-15T04:37:48;27.00;;;25.80;;
33206;SDS011;19565;46.602;11.534;2024-01-15T04:40:16;26.60;;;25.50;;
33206;SDS011;19565;46.602;11.534;2024-01-15T04:42:44;26.90;;;25.70;;
33206;SDS011;19565;46.602;11.534;2024-01-15T04:45:12;25.27;;;24.17;;
33206;SDS011;19565;46.602;11.534;2024-01-15T04:47:41;27.03;;;25.83;;
33206;SDS011;19565;46.602;11.534;2024-01-15T04:50:11;26.50;;;25.40;;
33206;SDS011;19565;46.602;11.534;2024-01-15T04:52:39;25.63;;;24.53;;
33206;SDS011;19565;46.602;11.534;2024-01-15T04:55:10;26.57;;;25.37;;
33206;SDS011;19565;46.602;11.534;2024-01-15T04:57:58;26.87;;;25.67;;
33206;SDS011;19565;46.602;11.534;2024-01-15T05:00:26;25.23;;;24.13;;
33206;SDS011;19565;46.602;11.534;2024-01-15T05:02:54;26.37;;;25.17;;
33206;SDS011;19565;46.602;11.534;2024-01-15T05:05:24;25.23;;;24.13;;
33206;SDS011;19565;46.602;11.534;2024-01-15T05:07:55;24.50;;;23.40;;
33206;SDS011;19565;46.602;11.534;2024-01-15T05:10:23;27.00;;;25.80;;
33206;SDS011;19565;46.602;11.534;2024-01-15T05:12:51;26.83;;;25.63;;
33206;SDS011;19565;46.602;11.534;2024-01-15T05:15:20;27.10;;;25.90;;
33206;SDS011;19565;46.602;11.534;2024-01-15T05:17:50;28.00;;;26.80;;
33206;SDS011;19565;46.602;11.534;2024-01-15T05:20:19;26.60;;;25.50;;
33206;SDS011;19565;46.602;11.534;2024-01-15T05:22:49;25.70;;;24.60;;
33206;SDS011;19565;46.602;11.534;2024-01-15T05:25:19;25.43;;;24.33;;
33206;SDS011;19565;46.602;11.534;2024-01-15T05:27:47;26.53;;;25.43;;
33206;SDS011;19565;46.602;11.534;2024-01-15T05:30:18;27.10;;;25.80;;
33206;SDS011;19565;46.602;11.534;2024-01-15T05:32:47;27.30;;;26.10;;
33206;SDS011;19565;46.602;11.534;2024-01-15T05:35:16;27.13;;;25.93;;
33206;SDS011;19565;46.602;11.534;2024-01-15T05:37:45;26.60;;;25.50;;
33206;SDS011;19565;46.602;11.534;2024-01-15T05:40:17;26.80;;;25.60;;
33206;SDS011;19565;46.602;11.534;2024-01-15T05:42:46;26.93;;;25.73;;
33206;SDS011;19565;46.602;11.534;2024-01-15T05:45:15;28.93;;;27.40;;
33206;SDS011;19565;46.602;11.534;2024-01-15T05:47:43;25.97;;;24.87;;
33206;SDS011;19565;46.602;11.534;2024-01-15T05:50:13;26.37;;;25.27;;
33206;SDS011;19565;46.602;11.534;2024-01-15T05:52:43;28.13;;;26.93;;
33206;SDS011;19565;46.602;11.534;2024-01-15T05:55:12;26.97;;;25.77;;
33206;SDS011;19565;46.602;11.534;2024-01-15T05:57:42;28.50;;;27.30;;
33206;SDS011;19565;46.602;11.534;2024-01-15T06:00:10;27.30;;;26.10;;
33206;SDS011;19565;46.602;11.534;2024-01-15T06:02:39;25.03;;;23.93;;
33206;SDS011;19565;46.602;11.534;2024-01-15T06:05:07;23.60;;;22.53;;
33206;SDS011;19565;46.602;11.534;2024-01-15T06:07:35;12.63;;;11.93;;
33206;SDS011;19565;46.602;11.534;2024-01-15T06:10:04;12.10;;;11.50;;
33206;SDS011;19565;46.602;11.534;2024-01-15T06:12:33;13.53;;;12.73;;
33206;SDS011;19565;46.602;11.534;2024-01-15T06:15:02;21.07;;;20.17;;
33206;SDS011;19565;46.602;11.534;2024-01-15T06:17:31;16.17;;;15.37;;
33206;SDS011;19565;46.602;11.534;2024-01-15T06:19:59;16.47;;;15.67;;
33206;SDS011;19565;46.602;11.534;2024-01-15T06:22:27;14.80;;;14.00;;
33206;SDS011;19565;46.602;11.534;2024-01-15T06:24:55;14.43;;;13.73;;
33206;SDS011;19565;46.602;11.534;2024-01-15T06:27:24;17.20;;;16.33;;
33206;SDS011;19565;46.602;11.534;2024-01-15T06:29:52;15.10;;;14.40;;
33206;SDS011;19565;46.602;11.534;2024-01-15T06:35:06;31.63;;;30.23;;
33206;SDS011;19565;46.602;11.534;2024-01-15T06:37:36;35.73;;;34.23;;
33206;SDS011;19565;46.602;11.534;2024-01-15T06:40:04;31.53;;;30.23;;
33206;SDS011;19565;46.602;11.534;2024-01-15T06:42:33;35.67;;;26.90;;
33206;SDS011;19565;46.602;11.534;2024-01-15T06:45:01;26.63;;;25.53;;
33206;SDS011;19565;46.602;11.534;2024-01-15T06:47:34;27.47;;;26.27;;
33206;SDS011;19565;46.602;11.534;2024-01-15T06:50:06;25.43;;;24.33;;
33206;SDS011;19565;46.602;11.534;2024-01-15T06:52:35;25.83;;;24.73;;
33206;SDS011;19565;46.602;11.534;2024-01-15T06:55:03;24.20;;;23.10;;
33206;SDS011;19565;46.602;11.534;2024-01-15T06:57:32;24.20;;;23.10;;
33206;SDS011;19565;46.602;11.534;2024-01-15T07:00:00;23.53;;;22.47;;
33206;SDS011;19565;46.602;11.534;2024-01-15T07:02:48;24.33;;;23.23;;
33206;SDS011;19565;46.602;11.534;2024-01-15T07:05:16;21.97;;;20.97;;
33206;SDS011;19565;46.602;11.534;2024-01-15T07:07:44;22.57;;;21.50;;
33206;SDS011;19565;46.602;11.534;2024-01-15T07:10:13;21.37;;;20.37;;
33206;SDS011;19565;46.602;11.534;2024-01-15T07:12:42;21.50;;;20.50;;
33206;SDS011;19565;46.602;11.534;2024-01-15T07:15:11;8.07;;;7.50;;
33206;SDS011;19565;46.602;11.534;2024-01-15T07:17:39;7.03;;;6.63;;
33206;SDS011;19565;46.602;11.534;2024-01-15T07:20:09;8.70;;;8.20;;
33206;SDS011;19565;46.602;11.534;2024-01-15T07:22:38;11.27;;;8.27;;
33206;SDS011;19565;46.602;11.534;2024-01-15T07:25:10;6.40;;;6.00;;
33206;SDS011;19565;46.602;11.534;2024-01-15T07:27:39;6.53;;;6.13;;
33206;SDS011;19565;46.602;11.534;2024-01-15T07:30:10;6.50;;;6.10;;
33206;SDS011;19565;46.602;11.534;2024-01-15T07:32:39;6.80;;;6.40;;
33206;SDS011;19565;46.602;11.534;2024-01-15T07:35:09;6.60;;;6.20;;
33206;SDS011;19565;46.602;11.534;2024-01-15T07:37:38;6.43;;;6.03;;
33206;SDS011;19565;46.602;11.534;2024-01-15T07:40:06;5.50;;;5.20;;
33206;SDS011;19565;46.602;11.534;2024-01-15T07:42:35;5.17;;;4.87;;
33206;SDS011;19565;46.602;11.534;2024-01-15T07:45:05;5.63;;;5.30;;
33206;SDS011;19565;46.602;11.534;2024-01-15T07:47:34;6.17;;;5.77;;
33206;SDS011;19565;46.602;11.534;2024-01-15T07:50:02;4.77;;;4.50;;
33206;SDS011;19565;46.602;11.534;2024-01-15T07:52:35;4.77;;;4.47;;
33206;SDS011;19565;46.602;11.534;2024-01-15T07:55:04;4.10;;;3.90;;
33206;SDS011;19565;46.602;11.534;2024-01-15T07:57:35;4.10;;;3.90;;
33206;SDS011;19565;46.602;11.534;2024-01-15T08:00:03;4.93;;;4.63;;
33206;SDS011;19565;46.602;11.534;2024-01-15T08:02:32;4.97;;;4.57;;
33206;SDS011;19565;46.602;11.534;2024-01-15T08:05:03;4.27;;;4.07;;
33206;SDS011;19565;46.602;11.534;2024-01-15T08:07:31;3.90;;;3.70;;
33206;SDS011;19565;46.602;11.534;2024-01-15T08:10:19;6.17;;;5.70;;
33206;SDS011;19565;46.602;11.534;2024-01-15T08:13:07;5.27;;;4.97;;
33206;SDS011;19565;46.602;11.534;2024-01-15T08:15:35;12.47;;;11.83;;
33206;SDS011;19565;46.602;11.534;2024-01-15T08:21:08;12.77;;;12.07;;
33206;SDS011;19565;46.602;11.534;2024-01-15T08:23:45;11.80;;;11.20;;
33206;SDS011;19565;46.602;11.534;2024-01-15T08:26:15;11.73;;;11.13;;
33206;SDS011;19565;46.602;11.534;2024-01-15T08:28:43;12.80;;;12.10;;
33206;SDS011;19565;46.602;11.534;2024-01-15T08:31:10;12.47;;;11.77;;
33206;SDS011;19565;46.602;11.534;2024-01-15T08:33:40;12.67;;;12.07;;
33206;SDS011;19565;46.602;11.534;2024-01-15T08:36:08;13.20;;;12.50;;
33206;SDS011;19565;46.602;11.534;2024-01-15T08:38:37;14.13;;;13.43;;
33206;SDS011;19565;46.602;11.534;2024-01-15T08:41:05;14.50;;;13.70;;
33206;SDS011;19565;46.602;11.534;2024-01-15T08:43:35;14.90;;;14.20;;
33206;SDS011;19565;46.602;11.534;2024-01-15T08:46:03;15.67;;;14.77;;
33206;SDS011;19565;46.602;11.534;2024-01-15T08:48:31;16.77;;;15.97;;
33206;SDS011;19565;46.602;11.534;2024-01-15T08:51:00;16.50;;;15.70;;
33206;SDS011;19565;46.602;11.534;2024-01-15T08:53:28;16.47;;;15.67;;
33206;SDS011;19565;46.602;11.534;2024-01-15T08:55:56;17.60;;;16.80;;
33206;SDS011;19565;46.602;11.534;2024-01-15T08:58:24;16.53;;;15.73;;
33206;SDS011;19565;46.602;11.534;2024-01-15T09:00:56;17.27;;;16.47;;
33206;SDS011;19565;46.602;11.534;2024-01-15T09:03:24;15.77;;;14.97;;
33206;SDS011;19565;46.602;11.534;2024-01-15T09:05:52;15.60;;;14.80;;
33206;SDS011;19565;46.602;11.534;2024-01-15T09:08:21;20.90;;;19.80;;
33206;SDS011;19565;46.602;11.534;2024-01-15T09:10:49;24.00;;;22.87;;
33206;SDS011;19565;46.602;11.534;2024-01-15T09:13:17;17.87;;;17.07;;
33206;SDS011;19565;46.602;11.534;2024-01-15T09:15:45;18.40;;;17.60;;
33206;SDS011;19565;46.602;11.534;2024-01-15T09:18:14;20.47;;;19.57;;
33206;SDS011;19565;46.602;11.534;2024-01-15T09:20:42;19.77;;;18.87;;
33206;SDS011;19565;46.602;11.534;2024-01-15T09:23:10;21.20;;;20.27;;
33206;SDS011;19565;46.602;11.534;2024-01-15T09:25:38;20.63;;;19.67;;
33206;SDS011;19565;46.602;11.534;2024-01-15T09:28:06;22.00;;;21.00;;
33206;SDS011;19565;46.602;11.534;2024-01-15T09:30:34;22.73;;;21.73;;
33206;SDS011;19565;46.602;11.534;2024-01-15T09:33:03;21.47;;;20.47;;
33206;SDS011;19565;46.602;11.534;2024-01-15T09:35:32;22.27;;;21.27;;
33206;SDS011;19565;46.602;11.534;2024-01-15T09:38:01;23.10;;;22.10;;
33206;SDS011;19565;46.602;11.534;2024-01-15T09:40:30;24.17;;;23.10;;
33206;SDS011;19565;46.602;11.534;2024-01-15T09:43:00;23.83;;;22.47;;
33206;SDS011;19565;46.602;11.534;2024-01-15T09:45:29;25.37;;;24.17;;
33206;SDS011;19565;46.602;11.534;2024-01-15T09:47:57;24.40;;;23.30;;
33206;SDS011;19565;46.602;11.534;2024-01-15T09:50:25;25.30;;;24.20;;
33206;SDS011;19565;46.602;11.534;2024-01-15T09:52:55;26.00;;;24.73;;
33206;SDS011;19565;46.602;11.534;2024-01-15T09:55:24;24.20;;;23.10;;
33206;SDS011;19565;46.602;11.534;2024-01-15T09:57:53;24.60;;;23.50;;
33206;SDS011;19565;46.602;11.534;2024-01-15T10:00:23;25.20;;;24.10;;
33206;SDS011;19565;46.602;11.534;2024-01-15T10:02:52;24.67;;;23.57;;
33206;SDS011;19565;46.602;11.534;2024-01-15T10:05:21;23.73;;;22.73;;
33206;SDS011;19565;46.602;11.534;2024-01-15T10:07:49;24.70;;;23.60;;
33206;SDS011;19565;46.602;11.534;2024-01-15T10:10:20;23.60;;;22.60;;
33206;SDS011;19565;46.602;11.534;2024-01-15T10:12:49;24.23;;;23.13;;
33206;SDS011;19565;46.602;11.534;2024-01-15T10:15:17;23.87;;;22.87;;
33206;SDS011;19565;46.602;11.534;2024-01-15T10:17:45;24.00;;;23.00;;
33206;SDS011;19565;46.602;11.534;2024-01-15T10:20:13;25.83;;;24.53;;
33206;SDS011;19565;46.602;11.534;2024-01-15T10:22:41;24.67;;;23.57;;
33206;SDS011;19565;46.602;11.534;2024-01-15T10:25:10;25.97;;;24.87;;
33206;SDS011;19565;46.602;11.534;2024-01-15T10:27:40;23.70;;;22.70;;
33206;SDS011;19565;46.602;11.534;2024-01-15T10:30:09;27.17;;;25.87;;
33206;SDS011;19565;46.602;11.534;2024-01-15T10:32:39;23.23;;;22.13;;
33206;SDS011;19565;46.602;11.534;2024-01-15T10:35:08;23.73;;;22.73;;
33206;SDS011;19565;46.602;11.534;2024-01-15T10:37:36;23.63;;;22.63;;
33206;SDS011;19565;46.602;11.534;2024-01-15T10:40:04;20.80;;;19.90;;
33206;SDS011;19565;46.602;11.534;2024-01-15T10:42:34;23.17;;;22.17;;
33206;SDS011;19565;46.602;11.534;2024-01-15T10:45:04;20.33;;;19.37;;
33206;SDS011;19565;46.602;11.534;2024-01-15T10:47:35;22.98;;;21.80;;
33206;SDS011;19565;46.602;11.534;2024-01-15T10:50:04;21.63;;;20.53;;
33206;SDS011;19565;46.602;11.534;2024-01-15T10:52:33;21.87;;;20.87;;
33206;SDS011;19565;46.602;11.534;2024-01-15T10:55:02;23.37;;;22.37;;
33206;SDS011;19565;46.602;11.534;2024-01-15T10:57:38;11.00;;;10.40;;
33206;SDS011;19565;46.602;11.534;2024-01-15T11:00:08;10.63;;;10.03;;
33206;SDS011;19565;46.602;11.534;2024-01-15T11:02:41;10.90;;;10.30;;
33206;SDS011;19565;46.602;11.534;2024-01-15T11:05:11;12.70;;;12.10;;
33206;SDS011;19565;46.602;11.534;2024-01-15T11:07:39;23.77;;;22.77;;
33206;SDS011;19565;46.602;11.534;2024-01-15T11:10:08;23.77;;;22.77;;
33206;SDS011;19565;46.602;11.534;2024-01-15T11:13:10;23.43;;;22.27;;
33206;SDS011;19565;46.602;11.534;2024-01-15T11:15:58;23.03;;;21.93;;
33206;SDS011;19565;46.602;11.534;2024-01-15T11:18:29;22.87;;;21.87;;
33206;SDS011;19565;46.602;11.534;2024-01-15T11:23:51;23.70;;;22.70;;
33206;SDS011;19565;46.602;11.534;2024-01-15T11:32:06;28.10;;;26.90;;
33206;SDS011;19565;46.602;11.534;2024-01-15T11:34:51;24.63;;;23.53;;
33206;SDS011;19565;46.602;11.534;2024-01-15T11:37:26;25.13;;;23.93;;
33206;SDS011;19565;46.602;11.534;2024-01-15T11:39:55;23.37;;;22.37;;
33206;SDS011;19565;46.602;11.534;2024-01-15T11:42:30;21.73;;;20.73;;
33206;SDS011;19565;46.602;11.534;2024-01-15T11:44:58;20.40;;;19.50;;
33206;SDS011;19565;46.602;11.534;2024-01-15T11:50:32;19.20;;;18.30;;
33206;SDS011;19565;46.602;11.534;2024-01-15T11:53:03;19.17;;;18.27;;
33206;SDS011;19565;46.602;11.534;2024-01-15T11:55:34;20.30;;;19.40;;
33206;SDS011;19565;46.602;11.534;2024-01-15T11:58:03;24.97;;;23.87;;
33206;SDS011;19565;46.602;11.534;2024-01-15T12:00:39;22.63;;;21.63;;
33206;SDS011;19565;46.602;11.534;2024-01-15T12:03:10;20.93;;;20.03;;
33206;SDS011;19565;46.602;11.534;2024-01-15T12:05:38;21.20;;;20.00;;
33206;SDS011;19565;46.602;11.534;2024-01-15T12:08:08;19.47;;;18.57;;
33206;SDS011;19565;46.602;11.534;2024-01-15T12:10:38;8.67;;;8.07;;
33206;SDS011;19565;46.602;11.534;2024-01-15T12:13:09;10.20;;;9.60;;
33206;SDS011;19565;46.602;11.534;2024-01-15T12:15:40;12.73;;;11.83;;
33206;SDS011;19565;46.602;11.534;2024-01-15T12:18:11;9.70;;;9.20;;
33206;SDS011;19565;46.602;11.534;2024-01-15T12:20:40;20.40;;;19.50;;
33206;SDS011;19565;46.602;11.534;2024-01-15T12:23:09;21.00;;;19.80;;
33206;SDS011;19565;46.602;11.534;2024-01-15T12:25:38;19.13;;;18.23;;
33206;SDS011;19565;46.602;11.534;2024-01-15T12:28:06;20.37;;;19.27;;
33206;SDS011;19565;46.602;11.534;2024-01-15T12:30:34;19.30;;;18.40;;
33206;SDS011;19565;46.602;11.534;2024-01-15T12:33:04;19.87;;;18.97;;
33206;SDS011;19565;46.602;11.534;2024-01-15T12:35:35;20.77;;;19.77;;
33206;SDS011;19565;46.602;11.534;2024-01-15T12:38:03;20.57;;;19.67;;
33206;SDS011;19565;46.602;11.534;2024-01-15T12:40:32;20.70;;;19.80;;
33206;SDS011;19565;46.602;11.534;2024-01-15T12:43:03;22.53;;;21.53;;
33206;SDS011;19565;46.602;11.534;2024-01-15T12:45:32;19.30;;;18.33;;
33206;SDS011;19565;46.602;11.534;2024-01-15T12:48:02;21.63;;;20.63;;
33206;SDS011;19565;46.602;11.534;2024-01-15T12:50:32;23.67;;;22.57;;
33206;SDS011;19565;46.602;11.534;2024-01-15T12:53:02;20.90;;;20.00;;
33206;SDS011;19565;46.602;11.534;2024-01-15T12:55:31;23.47;;;22.37;;
33206;SDS011;19565;46.602;11.534;2024-01-15T12:58:00;22.53;;;21.53;;
33206;SDS011;19565;46.602;11.534;2024-01-15T13:00:28;21.80;;;20.80;;
33206;SDS011;19565;46.602;11.534;2024-01-15T13:02:56;10.03;;;9.43;;
33206;SDS011;19565;46.602;11.534;2024-01-15T13:05:26;19.27;;;18.37;;
33206;SDS011;19565;46.602;11.534;2024-01-15T13:07:57;19.27;;;18.37;;
33206;SDS011;19565;46.602;11.534;2024-01-15T13:10:25;20.67;;;19.77;;
33206;SDS011;19565;46.602;11.534;2024-01-15T13:12:56;19.83;;;18.93;;
33206;SDS011;19565;46.602;11.534;2024-01-15T13:15:24;20.60;;;19.67;;
33206;SDS011;19565;46.602;11.534;2024-01-15T13:17:52;19.03;;;18.13;;
33206;SDS011;19565;46.602;11.534;2024-01-15T13:20:21;20.17;;;19.27;;
33206;SDS011;19565;46.602;11.534;2024-01-15T13:22:49;20.47;;;19.57;;
33206;SDS011;19565;46.602;11.534;2024-01-15T13:25:19;18.57;;;17.73;;
33206;SDS011;19565;46.602;11.534;2024-01-15T13:27:47;20.60;;;19.70;;
33206;SDS011;19565;46.602;11.534;2024-01-15T13:30:16;19.53;;;18.63;;
33206;SDS011;19565;46.602;11.534;2024-01-15T13:32:44;21.33;;;20.33;;
33206;SDS011;19565;46.602;11.534;2024-01-15T13:35:13;21.30;;;20.30;;
33206;SDS011;19565;46.602;11.534;2024-01-15T13:37:41;19.83;;;18.93;;
33206;SDS011;19565;46.602;11.534;2024-01-15T13:40:09;19.70;;;18.80;;
33206;SDS011;19565;46.602;11.534;2024-01-15T13:42:44;20.80;;;19.90;;
33206;SDS011;19565;46.602;11.534;2024-01-15T13:45:14;20.27;;;19.37;;
33206;SDS011;19565;46.602;11.534;2024-01-15T13:47:42;19.73;;;18.83;;
33206;SDS011;19565;46.602;11.534;2024-01-15T13:50:10;22.77;;;21.70;;
33206;SDS011;19565;46.602;11.534;2024-01-15T13:52:39;30.23;;;21.40;;
33206;SDS011;19565;46.602;11.534;2024-01-15T13:55:07;19.97;;;19.07;;
33206;SDS011;19565;46.602;11.534;2024-01-15T13:57:36;20.97;;;19.97;;
33206;SDS011;19565;46.602;11.534;2024-01-15T14:00:06;23.03;;;22.03;;
33206;SDS011;19565;46.602;11.534;2024-01-15T14:02:39;19.80;;;18.90;;
33206;SDS011;19565;46.602;11.534;2024-01-15T14:05:07;21.03;;;20.13;;
33206;SDS011;19565;46.602;11.534;2024-01-15T14:07:35;22.13;;;21.13;;
33206;SDS011;19565;46.602;11.534;2024-01-15T14:10:04;21.63;;;20.63;;
33206;SDS011;19565;46.602;11.534;2024-01-15T14:12:34;23.10;;;21.90;;
33206;SDS011;19565;46.602;11.534;2024-01-15T14:15:07;20.50;;;19.60;;
33206;SDS011;19565;46.602;11.534;2024-01-15T14:17:35;22.13;;;21.13;;
33206;SDS011;19565;46.602;11.534;2024-01-15T14:20:05;19.33;;;18.43;;
33206;SDS011;19565;46.602;11.534;2024-01-15T14:22:36;19.07;;;18.17;;
33206;SDS011;19565;46.602;11.534;2024-01-15T14:25:04;20.50;;;19.60;;
33206;SDS011;19565;46.602;11.534;2024-01-15T14:27:32;22.23;;;21.23;;
33206;SDS011;19565;46.602;11.534;2024-01-15T14:30:00;23.70;;;22.60;;
33206;SDS011;19565;46.602;11.534;2024-01-15T14:32:29;20.70;;;19.80;;
33206;SDS011;19565;46.602;11.534;2024-01-15T14:34:57;22.23;;;21.23;;
33206;SDS011;19565;46.602;11.534;2024-01-15T14:37:26;21.03;;;20.13;;
33206;SDS011;19565;46.602;11.534;2024-01-15T14:39:54;20.00;;;18.93;;
33206;SDS011;19565;46.602;11.534;2024-01-15T14:42:22;19.47;;;18.57;;